sensor_id;sensor_type;location;lat;lon;timestamp;temperature;humidity
20288;DHT22;10303;51.960;8.372;2023-04-07T00:02:04;12.20;89.30
20288;DHT22;10303;51.960;8.372;2023-04-07T00:04:30;12.10;88.70
20288;DHT22;10303;51.960;8.372;2023-04-07T00:06:56;12.10;88.50
20288;DHT22;10303;51.960;8.372;2023-04-07T00:09:22;12.20;89.10
20288;DHT22;10303;51.960;8.372;2023-04-07T00:11:48;12.10;89.10
20288;DHT22;10303;51.960;8.372;2023-04-07T00:14:14;12.20;88.70
20288;DHT22;10303;51.960;8.372;2023-04-07T00:16:39;12.10;88.50
20288;DHT22;10303;51.960;8.372;2023-04-07T00:19:05;12.20;88.50
20288;DHT22;10303;51.960;8.372;2023-04-07T00:21:31;12.10;89.20
20288;DHT22;10303;51.960;8.372;2023-04-07T00:23:57;12.20;88.60
20288;DHT22;10303;51.960;8.372;2023-04-07T00:26:23;12.20;89.50
20288;DHT22;10303;51.960;8.372;2023-04-07T00:28:53;12.30;89.20
20288;DHT22;10303;51.960;8.372;2023-04-07T00:31:19;12.10;89.10
20288;DHT22;10303;51.960;8.372;2023-04-07T00:33:45;12.10;88.70
20288;DHT22;10303;51.960;8.372;2023-04-07T00:36:12;12.10;90.00
20288;DHT22;10303;51.960;8.372;2023-04-07T00:38:38;12.00;89.50
20288;DHT22;10303;51.960;8.372;2023-04-07T00:41:05;12.00;90.40
20288;DHT22;10303;51.960;8.372;2023-04-07T00:43:31;12.00;90.30
20288;DHT22;10303;51.960;8.372;2023-04-07T00:45:57;12.00;90.30
20288;DHT22;10303;51.960;8.372;2023-04-07T00:48:23;12.10;90.20
20288;DHT22;10303;51.960;8.372;2023-04-07T00:50:50;12.10;90.10
20288;DHT22;10303;51.960;8.372;2023-04-07T00:53:16;12.00;90.00
20288;DHT22;10303;51.960;8.372;2023-04-07T00:55:42;11.90;90.00
20288;DHT22;10303;51.960;8.372;2023-04-07T00:58:08;11.90;90.30
20288;DHT22;10303;51.960;8.372;2023-04-07T01:00:40;11.90;90.10
20288;DHT22;10303;51.960;8.372;2023-04-07T01:03:24;11.90;90.10
20288;DHT22;10303;51.960;8.372;2023-04-07T01:06:05;11.90;90.20
20288;DHT22;10303;51.960;8.372;2023-04-07T01:08:56;11.90;90.20
20288;DHT22;10303;51.960;8.372;2023-04-07T01:14:34;11.90;90.50
20288;DHT22;10303;51.960;8.372;2023-04-07T01:17:24;11.90;90.10
20288;DHT22;10303;51.960;8.372;2023-04-07T01:19:57;11.90;90.20
20288;DHT22;10303;51.960;8.372;2023-04-07T01:22:31;11.90;90.40
20288;DHT22;10303;51.960;8.372;2023-04-07T01:31:30;11.80;90.90
20288;DHT22;10303;51.960;8.372;2023-04-07T01:33:58;11.80;91.50
20288;DHT22;10303;51.960;8.372;2023-04-07T01:36:27;11.80;90.90
20288;DHT22;10303;51.960;8.372;2023-04-07T01:38:58;11.90;90.80
20288;DHT22;10303;51.960;8.372;2023-04-07T01:41:25;11.80;91.10
20288;DHT22;10303;51.960;8.372;2023-04-07T01:43:53;11.70;90.80
20288;DHT22;10303;51.960;8.372;2023-04-07T01:46:22;11.70;90.80
20288;DHT22;10303;51.960;8.372;2023-04-07T01:48:50;11.70;90.70
20288;DHT22;10303;51.960;8.372;2023-04-07T01:51:19;11.70;91.00
20288;DHT22;10303;51.960;8.372;2023-04-07T01:53:47;11.70;91.20
20288;DHT22;10303;51.960;8.372;2023-04-07T01:56:14;11.70;91.20
20288;DHT22;10303;51.960;8.372;2023-04-07T01:58:42;11.70;91.00
20288;DHT22;10303;51.960;8.372;2023-04-07T02:01:12;11.70;91.00
20288;DHT22;10303;51.960;8.372;2023-04-07T02:03:53;11.70;91.20
20288;DHT22;10303;51.960;8.372;2023-04-07T02:06:33;11.70;91.60
20288;DHT22;10303;51.960;8.372;2023-04-07T02:09:06;11.70;91.20
20288;DHT22;10303;51.960;8.372;2023-04-07T02:11:36;11.70;91.20
20288;DHT22;10303;51.960;8.372;2023-04-07T02:14:06;11.70;91.20
20288;DHT22;10303;51.960;8.372;2023-04-07T02:16:45;11.70;91.20
20288;DHT22;10303;51.960;8.372;2023-04-07T02:19:12;11.70;91.10
20288;DHT22;10303;51.960;8.372;2023-04-07T02:21:39;11.70;91.10
20288;DHT22;10303;51.960;8.372;2023-04-07T02:24:10;11.80;91.40
20288;DHT22;10303;51.960;8.372;2023-04-07T02:26:36;11.70;92.00
20288;DHT22;10303;51.960;8.372;2023-04-07T02:29:03;11.80;92.00
20288;DHT22;10303;51.960;8.372;2023-04-07T02:31:29;11.60;91.70
20288;DHT22;10303;51.960;8.372;2023-04-07T02:33:55;11.60;91.60
20288;DHT22;10303;51.960;8.372;2023-04-07T02:36:21;11.60;91.50
20288;DHT22;10303;51.960;8.372;2023-04-07T02:38:47;11.70;92.30
20288;DHT22;10303;51.960;8.372;2023-04-07T02:41:13;11.60;92.50
20288;DHT22;10303;51.960;8.372;2023-04-07T02:43:38;11.50;92.10
20288;DHT22;10303;51.960;8.372;2023-04-07T02:46:04;11.50;92.00
20288;DHT22;10303;51.960;8.372;2023-04-07T02:48:30;11.50;92.30
20288;DHT22;10303;51.960;8.372;2023-04-07T02:50:57;11.50;92.00
20288;DHT22;10303;51.960;8.372;2023-04-07T02:53:23;11.50;92.10
20288;DHT22;10303;51.960;8.372;2023-04-07T02:55:49;11.60;92.10
20288;DHT22;10303;51.960;8.372;2023-04-07T02:58:15;11.60;92.70
20288;DHT22;10303;51.960;8.372;2023-04-07T03:00:43;11.50;92.40
20288;DHT22;10303;51.960;8.372;2023-04-07T03:03:13;11.60;92.30
20288;DHT22;10303;51.960;8.372;2023-04-07T03:05:43;11.60;92.50
20288;DHT22;10303;51.960;8.372;2023-04-07T03:08:10;11.50;92.50
20288;DHT22;10303;51.960;8.372;2023-04-07T03:10:38;11.50;92.60
20288;DHT22;10303;51.960;8.372;2023-04-07T03:13:06;11.40;92.90
20288;DHT22;10303;51.960;8.372;2023-04-07T03:15:33;11.40;93.20
20288;DHT22;10303;51.960;8.372;2023-04-07T03:17:59;11.40;92.80
20288;DHT22;10303;51.960;8.372;2023-04-07T03:20:27;11.40;92.70
20288;DHT22;10303;51.960;8.372;2023-04-07T03:22:52;11.70;92.80
20288;DHT22;10303;51.960;8.372;2023-04-07T03:25:25;11.40;92.90
20288;DHT22;10303;51.960;8.372;2023-04-07T03:27:52;11.40;93.10
20288;DHT22;10303;51.960;8.372;2023-04-07T03:30:19;11.50;93.10
20288;DHT22;10303;51.960;8.372;2023-04-07T03:32:45;11.30;93.10
20288;DHT22;10303;51.960;8.372;2023-04-07T03:35:12;11.50;93.20
20288;DHT22;10303;51.960;8.372;2023-04-07T03:37:38;11.40;93.40
20288;DHT22;10303;51.960;8.372;2023-04-07T03:40:09;11.30;93.30
20288;DHT22;10303;51.960;8.372;2023-04-07T03:42:35;11.30;93.50
20288;DHT22;10303;51.960;8.372;2023-04-07T03:45:05;11.30;93.60
20288;DHT22;10303;51.960;8.372;2023-04-07T03:47:33;11.30;93.60
20288;DHT22;10303;51.960;8.372;2023-04-07T03:50:01;11.30;93.50
20288;DHT22;10303;51.960;8.372;2023-04-07T03:52:32;11.30;93.60
20288;DHT22;10303;51.960;8.372;2023-04-07T03:55:06;11.40;93.70
20288;DHT22;10303;51.960;8.372;2023-04-07T03:57:33;11.30;93.70
20288;DHT22;10303;51.960;8.372;2023-04-07T03:59:59;11.40;93.70
20288;DHT22;10303;51.960;8.372;2023-04-07T04:02:29;11.30;94.30
20288;DHT22;10303;51.960;8.372;2023-04-07T04:04:56;11.30;94.20
20288;DHT22;10303;51.960;8.372;2023-04-07T04:07:23;11.20;94.20
20288;DHT22;10303;51.960;8.372;2023-04-07T04:09:52;11.30;94.50
20288;DHT22;10303;51.960;8.372;2023-04-07T04:12:18;11.20;94.40
20288;DHT22;10303;51.960;8.372;2023-04-07T04:14:57;11.30;94.40
20288;DHT22;10303;51.960;8.372;2023-04-07T04:17:24;11.30;94.30
20288;DHT22;10303;51.960;8.372;2023-04-07T04:19:50;11.60;94.40
20288;DHT22;10303;51.960;8.372;2023-04-07T04:22:22;11.30;94.60
20288;DHT22;10303;51.960;8.372;2023-04-07T04:24:52;11.20;94.60
20288;DHT22;10303;51.960;8.372;2023-04-07T04:27:18;11.20;94.60
20288;DHT22;10303;51.960;8.372;2023-04-07T04:29:49;11.20;94.60
20288;DHT22;10303;51.960;8.372;2023-04-07T04:32:18;11.20;94.70
20288;DHT22;10303;51.960;8.372;2023-04-07T04:34:44;11.30;94.80
20288;DHT22;10303;51.960;8.372;2023-04-07T04:37:11;11.20;94.70
20288;DHT22;10303;51.960;8.372;2023-04-07T04:39:40;11.20;95.10
20288;DHT22;10303;51.960;8.372;2023-04-07T04:42:10;11.20;95.00
20288;DHT22;10303;51.960;8.372;2023-04-07T04:44:36;11.20;95.00
20288;DHT22;10303;51.960;8.372;2023-04-07T04:47:03;11.20;95.20
20288;DHT22;10303;51.960;8.372;2023-04-07T04:49:30;11.20;95.20
20288;DHT22;10303;51.960;8.372;2023-04-07T04:52:00;11.10;95.30
20288;DHT22;10303;51.960;8.372;2023-04-07T04:54:27;11.10;95.80
20288;DHT22;10303;51.960;8.372;2023-04-07T04:56:53;11.10;96.10
20288;DHT22;10303;51.960;8.372;2023-04-07T04:59:19;11.10;95.80
20288;DHT22;10303;51.960;8.372;2023-04-07T05:02:00;11.10;95.70
20288;DHT22;10303;51.960;8.372;2023-04-07T05:04:26;11.20;95.70
20288;DHT22;10303;51.960;8.372;2023-04-07T05:07:00;11.10;95.70
20288;DHT22;10303;51.960;8.372;2023-04-07T05:09:28;11.10;95.80
20288;DHT22;10303;51.960;8.372;2023-04-07T05:11:54;11.10;95.70
20288;DHT22;10303;51.960;8.372;2023-04-07T05:14:22;11.10;96.00
20288;DHT22;10303;51.960;8.372;2023-04-07T05:16:53;11.10;96.00
20288;DHT22;10303;51.960;8.372;2023-04-07T05:19:23;11.10;96.70
20288;DHT22;10303;51.960;8.372;2023-04-07T05:21:53;11.10;96.40
20288;DHT22;10303;51.960;8.372;2023-04-07T05:24:21;11.30;96.40
20288;DHT22;10303;51.960;8.372;2023-04-07T05:26:52;11.10;96.40
20288;DHT22;10303;51.960;8.372;2023-04-07T05:29:18;11.10;96.50
20288;DHT22;10303;51.960;8.372;2023-04-07T05:31:45;11.20;96.50
20288;DHT22;10303;51.960;8.372;2023-04-07T05:34:13;11.10;96.60
20288;DHT22;10303;51.960;8.372;2023-04-07T05:36:46;11.10;96.70
20288;DHT22;10303;51.960;8.372;2023-04-07T05:39:12;11.10;96.70
20288;DHT22;10303;51.960;8.372;2023-04-07T05:41:39;11.10;96.70
20288;DHT22;10303;51.960;8.372;2023-04-07T05:44:05;11.30;96.80
20288;DHT22;10303;51.960;8.372;2023-04-07T05:46:35;11.30;96.90
20288;DHT22;10303;51.960;8.372;2023-04-07T05:49:01;11.20;97.00
20288;DHT22;10303;51.960;8.372;2023-04-07T05:51:27;11.20;97.20
20288;DHT22;10303;51.960;8.372;2023-04-07T05:53:55;11.20;97.30
20288;DHT22;10303;51.960;8.372;2023-04-07T05:56:23;11.20;97.40
20288;DHT22;10303;51.960;8.372;2023-04-07T05:58:49;11.20;97.50
20288;DHT22;10303;51.960;8.372;2023-04-07T06:01:17;11.20;97.50
20288;DHT22;10303;51.960;8.372;2023-04-07T06:03:43;11.30;97.60
20288;DHT22;10303;51.960;8.372;2023-04-07T06:06:14;11.30;97.50
20288;DHT22;10303;51.960;8.372;2023-04-07T06:08:40;11.30;97.90
20288;DHT22;10303;51.960;8.372;2023-04-07T06:11:07;11.30;98.00
20288;DHT22;10303;51.960;8.372;2023-04-07T06:13:33;11.30;98.10
20288;DHT22;10303;51.960;8.372;2023-04-07T06:15:59;11.40;98.10
20288;DHT22;10303;51.960;8.372;2023-04-07T06:18:25;11.30;98.10
20288;DHT22;10303;51.960;8.372;2023-04-07T06:20:50;11.30;98.10
20288;DHT22;10303;51.960;8.372;2023-04-07T06:23:17;11.80;98.30
20288;DHT22;10303;51.960;8.372;2023-04-07T06:25:43;11.30;98.20
20288;DHT22;10303;51.960;8.372;2023-04-07T06:28:09;11.40;98.40
20288;DHT22;10303;51.960;8.372;2023-04-07T06:30:35;11.30;98.60
20288;DHT22;10303;51.960;8.372;2023-04-07T06:33:04;11.40;98.60
20288;DHT22;10303;51.960;8.372;2023-04-07T06:35:31;11.40;98.60
20288;DHT22;10303;51.960;8.372;2023-04-07T06:37:57;11.40;98.90
20288;DHT22;10303;51.960;8.372;2023-04-07T06:40:23;11.30;98.90
20288;DHT22;10303;51.960;8.372;2023-04-07T06:42:48;11.40;98.80
20288;DHT22;10303;51.960;8.372;2023-04-07T06:45:26;11.40;98.90
20288;DHT22;10303;51.960;8.372;2023-04-07T06:47:52;11.40;99.10
20288;DHT22;10303;51.960;8.372;2023-04-07T06:50:18;11.50;99.10
20288;DHT22;10303;51.960;8.372;2023-04-07T06:52:46;11.60;99.20
20288;DHT22;10303;51.960;8.372;2023-04-07T06:55:13;11.40;99.40
20288;DHT22;10303;51.960;8.372;2023-04-07T06:57:38;11.40;99.70
20288;DHT22;10303;51.960;8.372;2023-04-07T07:00:05;11.50;99.60
20288;DHT22;10303;51.960;8.372;2023-04-07T07:02:32;11.40;99.90
20288;DHT22;10303;51.960;8.372;2023-04-07T07:04:59;11.50;99.90
20288;DHT22;10303;51.960;8.372;2023-04-07T07:07:27;11.50;99.90
20288;DHT22;10303;51.960;8.372;2023-04-07T07:09:53;11.90;99.90
20288;DHT22;10303;51.960;8.372;2023-04-07T07:12:19;11.50;99.90
20288;DHT22;10303;51.960;8.372;2023-04-07T07:14:45;11.70;99.90
20288;DHT22;10303;51.960;8.372;2023-04-07T07:17:11;11.60;99.90
20288;DHT22;10303;51.960;8.372;2023-04-07T07:19:37;11.70;99.90
20288;DHT22;10303;51.960;8.372;2023-04-07T07:22:03;11.70;99.90
20288;DHT22;10303;51.960;8.372;2023-04-07T07:24:30;11.70;99.90
20288;DHT22;10303;51.960;8.372;2023-04-07T07:26:59;11.80;99.90
20288;DHT22;10303;51.960;8.372;2023-04-07T07:29:26;11.80;99.90
20288;DHT22;10303;51.960;8.372;2023-04-07T07:31:52;12.00;99.90
20288;DHT22;10303;51.960;8.372;2023-04-07T07:34:18;12.40;99.90
20288;DHT22;10303;51.960;8.372;2023-04-07T07:36:44;11.90;99.90
20288;DHT22;10303;51.960;8.372;2023-04-07T07:39:10;12.00;99.90
20288;DHT22;10303;51.960;8.372;2023-04-07T07:41:37;12.00;99.90
20288;DHT22;10303;51.960;8.372;2023-04-07T07:44:03;12.00;99.90
20288;DHT22;10303;51.960;8.372;2023-04-07T07:46:29;12.10;99.90
20288;DHT22;10303;51.960;8.372;2023-04-07T07:48:55;12.20;99.90
20288;DHT22;10303;51.960;8.372;2023-04-07T07:51:21;12.30;99.90
20288;DHT22;10303;51.960;8.372;2023-04-07T07:53:47;12.20;99.90
20288;DHT22;10303;51.960;8.372;2023-04-07T07:56:13;12.20;99.90
20288;DHT22;10303;51.960;8.372;2023-04-07T07:58:39;12.20;99.90
20288;DHT22;10303;51.960;8.372;2023-04-07T08:01:05;12.30;99.90
20288;DHT22;10303;51.960;8.372;2023-04-07T08:03:31;12.40;99.90
20288;DHT22;10303;51.960;8.372;2023-04-07T08:05:57;12.40;99.90
20288;DHT22;10303;51.960;8.372;2023-04-07T08:08:23;12.50;99.90
20288;DHT22;10303;51.960;8.372;2023-04-07T08:10:49;12.50;99.90
20288;DHT22;10303;51.960;8.372;2023-04-07T08:13:15;12.50;99.90
20288;DHT22;10303;51.960;8.372;2023-04-07T08:15:41;12.60;99.90
20288;DHT22;10303;51.960;8.372;2023-04-07T08:18:07;12.60;99.90
20288;DHT22;10303;51.960;8.372;2023-04-07T08:20:33;12.70;99.90
20288;DHT22;10303;51.960;8.372;2023-04-07T08:22:59;12.70;99.90
20288;DHT22;10303;51.960;8.372;2023-04-07T08:25:27;12.70;99.90
20288;DHT22;10303;51.960;8.372;2023-04-07T08:27:54;12.80;99.90
20288;DHT22;10303;51.960;8.372;2023-04-07T08:30:21;12.80;99.90
20288;DHT22;10303;51.960;8.372;2023-04-07T08:32:47;12.90;99.90
20288;DHT22;10303;51.960;8.372;2023-04-07T08:35:13;13.00;99.90
20288;DHT22;10303;51.960;8.372;2023-04-07T08:37:39;13.00;99.90
20288;DHT22;10303;51.960;8.372;2023-04-07T08:40:06;13.00;99.90
20288;DHT22;10303;51.960;8.372;2023-04-07T08:42:34;13.10;99.90
20288;DHT22;10303;51.960;8.372;2023-04-07T08:45:05;13.30;99.90
20288;DHT22;10303;51.960;8.372;2023-04-07T08:47:34;13.20;99.90
20288;DHT22;10303;51.960;8.372;2023-04-07T08:50:02;13.20;99.90
20288;DHT22;10303;51.960;8.372;2023-04-07T08:55:11;13.40;99.90
20288;DHT22;10303;51.960;8.372;2023-04-07T08:57:38;13.40;99.90
20288;DHT22;10303;51.960;8.372;2023-04-07T09:00:06;13.50;99.90
20288;DHT22;10303;51.960;8.372;2023-04-07T09:02:33;13.50;99.90
20288;DHT22;10303;51.960;8.372;2023-04-07T09:05:03;13.50;99.90
20288;DHT22;10303;51.960;8.372;2023-04-07T09:07:32;13.50;99.90
20288;DHT22;10303;51.960;8.372;2023-04-07T09:09:59;13.60;99.90
20288;DHT22;10303;51.960;8.372;2023-04-07T09:12:30;13.60;99.90
20288;DHT22;10303;51.960;8.372;2023-04-07T09:14:59;13.70;99.90
20288;DHT22;10303;51.960;8.372;2023-04-07T09:17:26;13.70;99.90
20288;DHT22;10303;51.960;8.372;2023-04-07T09:19:58;13.80;99.90
20288;DHT22;10303;51.960;8.372;2023-04-07T09:22:42;14.00;99.90
20288;DHT22;10303;51.960;8.372;2023-04-07T09:25:15;13.90;99.90
20288;DHT22;10303;51.960;8.372;2023-04-07T09:28:02;14.00;99.90
20288;DHT22;10303;51.960;8.372;2023-04-07T09:30:31;14.00;99.90
20288;DHT22;10303;51.960;8.372;2023-04-07T09:32:58;14.00;99.90
20288;DHT22;10303;51.960;8.372;2023-04-07T09:35:25;14.10;99.90
20288;DHT22;10303;51.960;8.372;2023-04-07T09:38:08;14.10;99.90
20288;DHT22;10303;51.960;8.372;2023-04-07T09:40:35;14.10;99.90
20288;DHT22;10303;51.960;8.372;2023-04-07T09:43:05;14.00;99.90
20288;DHT22;10303;51.960;8.372;2023-04-07T09:45:31;14.10;99.90
20288;DHT22;10303;51.960;8.372;2023-04-07T09:48:01;14.10;99.90
20288;DHT22;10303;51.960;8.372;2023-04-07T09:50:40;14.00;99.90
20288;DHT22;10303;51.960;8.372;2023-04-07T09:53:06;14.00;99.90
20288;DHT22;10303;51.960;8.372;2023-04-07T09:55:32;14.10;99.90
20288;DHT22;10303;51.960;8.372;2023-04-07T09:58:00;14.00;99.90
20288;DHT22;10303;51.960;8.372;2023-04-07T10:00:26;14.00;99.90
20288;DHT22;10303;51.960;8.372;2023-04-07T10:02:53;14.20;99.90
20288;DHT22;10303;51.960;8.372;2023-04-07T10:05:19;14.00;99.90
20288;DHT22;10303;51.960;8.372;2023-04-07T10:07:48;14.00;99.90
20288;DHT22;10303;51.960;8.372;2023-04-07T10:10:15;14.10;99.90
20288;DHT22;10303;51.960;8.372;2023-04-07T10:12:41;14.00;99.90
20288;DHT22;10303;51.960;8.372;2023-04-07T10:15:08;14.00;99.90
20288;DHT22;10303;51.960;8.372;2023-04-07T10:17:39;14.00;99.90
20288;DHT22;10303;51.960;8.372;2023-04-07T10:20:10;14.00;99.90
20288;DHT22;10303;51.960;8.372;2023-04-07T10:22:37;14.10;99.90
20288;DHT22;10303;51.960;8.372;2023-04-07T10:25:13;14.10;99.90
20288;DHT22;10303;51.960;8.372;2023-04-07T10:30:22;14.10;99.90
20288;DHT22;10303;51.960;8.372;2023-04-07T10:32:51;14.10;99.90
20288;DHT22;10303;51.960;8.372;2023-04-07T10:35:19;14.20;99.90
20288;DHT22;10303;51.960;8.372;2023-04-07T10:38:11;14.20;99.90
20288;DHT22;10303;51.960;8.372;2023-04-07T10:40:39;14.20;99.90
20288;DHT22;10303;51.960;8.372;2023-04-07T10:43:06;14.20;99.90
20288;DHT22;10303;51.960;8.372;2023-04-07T10:48:16;14.20;99.90
20288;DHT22;10303;51.960;8.372;2023-04-07T10:50:44;14.20;99.90
20288;DHT22;10303;51.960;8.372;2023-04-07T10:53:13;14.30;99.90
20288;DHT22;10303;51.960;8.372;2023-04-07T10:55:42;14.20;99.90
20288;DHT22;10303;51.960;8.372;2023-04-07T10:58:30;14.30;99.90
20288;DHT22;10303;51.960;8.372;2023-04-07T11:03:37;14.40;99.90
20288;DHT22;10303;51.960;8.372;2023-04-07T11:06:16;14.40;99.90
20288;DHT22;10303;51.960;8.372;2023-04-07T11:08:43;14.50;99.90
20288;DHT22;10303;51.960;8.372;2023-04-07T11:11:13;14.50;99.90
20288;DHT22;10303;51.960;8.372;2023-04-07T11:13:48;14.50;99.90
20288;DHT22;10303;51.960;8.372;2023-04-07T11:16:16;14.50;99.90
20288;DHT22;10303;51.960;8.372;2023-04-07T11:18:44;14.60;99.90
20288;DHT22;10303;51.960;8.372;2023-04-07T11:21:17;14.60;99.90
20288;DHT22;10303;51.960;8.372;2023-04-07T11:23:45;14.60;99.90
20288;DHT22;10303;51.960;8.372;2023-04-07T11:26:13;14.70;99.90
20288;DHT22;10303;51.960;8.372;2023-04-07T11:28:48;14.70;99.90
20288;DHT22;10303;51.960;8.372;2023-04-07T11:31:23;14.70;99.90
20288;DHT22;10303;51.960;8.372;2023-04-07T11:34:03;14.80;99.90
20288;DHT22;10303;51.960;8.372;2023-04-07T11:36:31;14.80;99.90
20288;DHT22;10303;51.960;8.372;2023-04-07T11:39:00;14.80;99.90
20288;DHT22;10303;51.960;8.372;2023-04-07T11:41:28;15.00;99.90
20288;DHT22;10303;51.960;8.372;2023-04-07T11:44:08;15.00;99.90
20288;DHT22;10303;51.960;8.372;2023-04-07T11:46:36;15.10;99.90
20288;DHT22;10303;51.960;8.372;2023-04-07T11:49:17;15.20;99.90
20288;DHT22;10303;51.960;8.372;2023-04-07T11:51:43;15.30;99.90
20288;DHT22;10303;51.960;8.372;2023-04-07T11:54:09;15.30;99.90
20288;DHT22;10303;51.960;8.372;2023-04-07T11:56:46;15.50;99.90
20288;DHT22;10303;51.960;8.372;2023-04-07T11:59:25;15.40;99.90
20288;DHT22;10303;51.960;8.372;2023-04-07T12:01:51;15.50;99.90
20288;DHT22;10303;51.960;8.372;2023-04-07T12:04:18;15.60;99.90
20288;DHT22;10303;51.960;8.372;2023-04-07T12:06:47;15.60;99.90
20288;DHT22;10303;51.960;8.372;2023-04-07T12:09:30;15.60;99.90
20288;DHT22;10303;51.960;8.372;2023-04-07T12:12:01;15.80;99.90
20288;DHT22;10303;51.960;8.372;2023-04-07T12:14:28;15.70;99.70
20288;DHT22;10303;51.960;8.372;2023-04-07T12:16:56;15.90;99.90
20288;DHT22;10303;51.960;8.372;2023-04-07T12:19:25;15.90;99.90
20288;DHT22;10303;51.960;8.372;2023-04-07T12:21:53;15.90;99.90
20288;DHT22;10303;51.960;8.372;2023-04-07T12:24:19;16.00;99.90
20288;DHT22;10303;51.960;8.372;2023-04-07T12:26:46;16.10;99.90
20288;DHT22;10303;51.960;8.372;2023-04-07T12:29:12;16.10;99.80
20288;DHT22;10303;51.960;8.372;2023-04-07T12:31:38;16.20;99.60
20288;DHT22;10303;51.960;8.372;2023-04-07T12:34:05;16.20;99.30
20288;DHT22;10303;51.960;8.372;2023-04-07T12:36:30;16.30;99.40
20288;DHT22;10303;51.960;8.372;2023-04-07T12:38:57;16.40;99.00
20288;DHT22;10303;51.960;8.372;2023-04-07T12:41:24;16.50;99.10
20288;DHT22;10303;51.960;8.372;2023-04-07T12:43:50;16.50;98.90
20288;DHT22;10303;51.960;8.372;2023-04-07T12:46:17;16.50;98.70
20288;DHT22;10303;51.960;8.372;2023-04-07T12:48:43;16.60;98.50
20288;DHT22;10303;51.960;8.372;2023-04-07T12:51:09;16.60;98.70
20288;DHT22;10303;51.960;8.372;2023-04-07T12:53:35;16.60;98.20
20288;DHT22;10303;51.960;8.372;2023-04-07T12:56:01;16.70;98.10
20288;DHT22;10303;51.960;8.372;2023-04-07T12:58:27;16.70;98.10
20288;DHT22;10303;51.960;8.372;2023-04-07T13:00:53;16.70;97.60
20288;DHT22;10303;51.960;8.372;2023-04-07T13:03:21;16.70;97.80
20288;DHT22;10303;51.960;8.372;2023-04-07T13:05:47;16.90;97.80
20288;DHT22;10303;51.960;8.372;2023-04-07T13:08:13;16.70;97.70
20288;DHT22;10303;51.960;8.372;2023-04-07T13:10:39;16.80;97.20
20288;DHT22;10303;51.960;8.372;2023-04-07T13:13:05;16.80;97.20
20288;DHT22;10303;51.960;8.372;2023-04-07T13:15:31;16.80;97.40
20288;DHT22;10303;51.960;8.372;2023-04-07T13:17:57;16.80;97.20
20288;DHT22;10303;51.960;8.372;2023-04-07T13:20:23;16.80;97.30
20288;DHT22;10303;51.960;8.372;2023-04-07T13:22:53;16.80;97.40
20288;DHT22;10303;51.960;8.372;2023-04-07T13:25:19;16.80;97.10
20288;DHT22;10303;51.960;8.372;2023-04-07T13:27:44;16.80;96.80
20288;DHT22;10303;51.960;8.372;2023-04-07T13:30:12;16.80;97.10
20288;DHT22;10303;51.960;8.372;2023-04-07T13:32:38;16.80;97.10
20288;DHT22;10303;51.960;8.372;2023-04-07T13:35:04;16.90;97.10
20288;DHT22;10303;51.960;8.372;2023-04-07T13:37:30;16.90;96.90
20288;DHT22;10303;51.960;8.372;2023-04-07T13:39:56;16.90;97.00
20288;DHT22;10303;51.960;8.372;2023-04-07T13:42:22;16.90;96.90
20288;DHT22;10303;51.960;8.372;2023-04-07T13:44:48;16.90;97.10
20288;DHT22;10303;51.960;8.372;2023-04-07T13:47:16;17.00;97.30
20288;DHT22;10303;51.960;8.372;2023-04-07T13:49:46;17.00;97.30
20288;DHT22;10303;51.960;8.372;2023-04-07T13:52:13;17.00;97.10
20288;DHT22;10303;51.960;8.372;2023-04-07T13:54:40;17.10;97.10
20288;DHT22;10303;51.960;8.372;2023-04-07T13:57:06;17.20;97.30
20288;DHT22;10303;51.960;8.372;2023-04-07T13:59:32;17.20;97.10
20288;DHT22;10303;51.960;8.372;2023-04-07T14:01:59;17.30;97.20
20288;DHT22;10303;51.960;8.372;2023-04-07T14:04:25;17.30;97.00
20288;DHT22;10303;51.960;8.372;2023-04-07T14:06:52;17.40;97.00
20288;DHT22;10303;51.960;8.372;2023-04-07T14:09:18;17.50;97.00
20288;DHT22;10303;51.960;8.372;2023-04-07T14:11:44;17.50;96.80
20288;DHT22;10303;51.960;8.372;2023-04-07T14:14:11;17.60;96.60
20288;DHT22;10303;51.960;8.372;2023-04-07T14:16:37;17.60;96.70
20288;DHT22;10303;51.960;8.372;2023-04-07T14:19:03;17.70;96.20
20288;DHT22;10303;51.960;8.372;2023-04-07T14:21:29;17.40;95.40
20288;DHT22;10303;51.960;8.372;2023-04-07T14:23:56;17.60;96.20
20288;DHT22;10303;51.960;8.372;2023-04-07T14:26:21;17.70;96.50
20288;DHT22;10303;51.960;8.372;2023-04-07T14:28:47;17.80;96.40
20288;DHT22;10303;51.960;8.372;2023-04-07T14:31:14;17.80;96.20
20288;DHT22;10303;51.960;8.372;2023-04-07T14:33:42;17.90;94.30
20288;DHT22;10303;51.960;8.372;2023-04-07T14:36:09;17.70;94.40
20288;DHT22;10303;51.960;8.372;2023-04-07T14:38:35;17.40;94.80
20288;DHT22;10303;51.960;8.372;2023-04-07T14:41:01;17.20;95.20
20288;DHT22;10303;51.960;8.372;2023-04-07T14:43:29;17.30;95.30
20288;DHT22;10303;51.960;8.372;2023-04-07T14:45:55;17.40;95.20
20288;DHT22;10303;51.960;8.372;2023-04-07T14:48:22;17.40;95.20
20288;DHT22;10303;51.960;8.372;2023-04-07T14:50:48;17.40;95.10
20288;DHT22;10303;51.960;8.372;2023-04-07T14:53:13;17.50;95.20
20288;DHT22;10303;51.960;8.372;2023-04-07T14:55:40;17.50;95.40
20288;DHT22;10303;51.960;8.372;2023-04-07T14:58:07;17.50;95.40
20288;DHT22;10303;51.960;8.372;2023-04-07T15:00:34;17.50;95.30
20288;DHT22;10303;51.960;8.372;2023-04-07T15:03:00;17.60;95.20
20288;DHT22;10303;51.960;8.372;2023-04-07T15:05:26;17.60;95.20
20288;DHT22;10303;51.960;8.372;2023-04-07T15:07:53;17.60;94.60
20288;DHT22;10303;51.960;8.372;2023-04-07T15:10:20;17.40;94.80
20288;DHT22;10303;51.960;8.372;2023-04-07T15:12:46;17.00;94.50
20288;DHT22;10303;51.960;8.372;2023-04-07T15:15:13;16.60;95.40
20288;DHT22;10303;51.960;8.372;2023-04-07T15:17:39;16.40;95.60
20288;DHT22;10303;51.960;8.372;2023-04-07T15:20:05;16.30;96.20
20288;DHT22;10303;51.960;8.372;2023-04-07T15:22:32;16.30;96.00
20288;DHT22;10303;51.960;8.372;2023-04-07T15:25:02;16.20;96.00
20288;DHT22;10303;51.960;8.372;2023-04-07T15:27:28;16.20;95.90
20288;DHT22;10303;51.960;8.372;2023-04-07T15:29:54;16.30;95.70
20288;DHT22;10303;51.960;8.372;2023-04-07T15:32:20;15.90;96.30
20288;DHT22;10303;51.960;8.372;2023-04-07T15:34:46;15.90;96.60
20288;DHT22;10303;51.960;8.372;2023-04-07T15:37:12;16.00;96.20
20288;DHT22;10303;51.960;8.372;2023-04-07T15:39:43;16.00;96.40
20288;DHT22;10303;51.960;8.372;2023-04-07T15:42:09;15.70;96.50
20288;DHT22;10303;51.960;8.372;2023-04-07T15:44:37;15.60;97.00
20288;DHT22;10303;51.960;8.372;2023-04-07T15:47:06;15.40;97.50
20288;DHT22;10303;51.960;8.372;2023-04-07T15:49:34;15.40;98.20
20288;DHT22;10303;51.960;8.372;2023-04-07T15:52:03;15.30;98.40
20288;DHT22;10303;51.960;8.372;2023-04-07T15:54:31;15.30;98.10
20288;DHT22;10303;51.960;8.372;2023-04-07T15:56:57;15.20;98.30